Time;durP1;ratioP1;P1;durP2;ratioP2;P2;SDS_P1;SDS_P2;PMS_P1;PMS_P2;Temp;Humidity;BMP_temperature;BMP_pressure;BME280_temperature;BME280_humidity;BME280_pressure;Samples;Min_cycle;Max_cycle;Signal;HPM_P1;HPM_P2
2023/06/03 00:00:57;;;;;;;4.10;2.83;;;;;;;13.49;78.17;102019.97;4972033;28;20503;-57
2023/06/03 00:03:22;;;;;;;4.25;2.95;;;;;;;13.46;78.71;102020.75;4975766;28;20076;-57
2023/06/03 00:05:48;;;;;;;4.82;2.72;;;;;;;13.45;78.29;102028.56;4978250;28;20058;-57
2023/06/03 00:08:13;;;;;;;3.50;2.70;;;;;;;13.37;78.41;102023.97;4978361;28;20105;-57
2023/06/03 00:10:38;;;;;;;3.97;2.85;;;;;;;13.37;78.46;102026.59;4974112;28;20125;-56
2023/06/03 00:13:04;;;;;;;4.10;3.00;;;;;;;13.35;78.49;102025.66;4971116;28;20030;-56
2023/06/03 00:15:29;;;;;;;3.88;3.00;;;;;;;13.30;78.96;102027.22;4972264;28;20077;-57
2023/06/03 00:17:55;;;;;;;4.07;2.85;;;;;;;13.25;78.64;102026.16;4971877;28;20034;-57
2023/06/03 00:20:21;;;;;;;4.28;2.95;;;;;;;13.21;78.60;102016.47;4972506;28;20277;-56
2023/06/03 00:22:46;;;;;;;3.80;2.80;;;;;;;13.19;78.64;102025.97;4976289;28;20516;-57
2023/06/03 00:25:12;;;;;;;4.78;2.88;;;;;;;13.16;78.65;102021.53;4976771;28;20109;-56
2023/06/03 00:27:41;;;;;;;6.15;3.40;;;;;;;13.12;78.29;102027.53;4974818;28;20034;-57
2023/06/03 00:30:07;;;;;;;5.80;3.13;;;;;;;13.11;78.78;102027.47;4974734;28;20037;-56
2023/06/03 00:32:33;;;;;;;4.00;2.92;;;;;;;13.10;78.36;102025.69;4977755;28;20030;-57
2023/06/03 00:34:59;;;;;;;4.55;3.15;;;;;;;13.09;78.63;102026.53;4976902;28;20030;-56
2023/06/03 00:37:25;;;;;;;4.53;2.90;;;;;;;13.05;78.66;102023.81;4977911;28;20478;-56
2023/06/03 00:39:50;;;;;;;5.20;3.38;;;;;;;13.02;78.66;102028.94;4976325;28;20557;-57
2023/06/03 00:42:15;;;;;;;4.30;3.00;;;;;;;13.01;78.26;102027.16;4974261;28;20030;-56
2023/06/03 00:44:41;;;;;;;4.90;3.10;;;;;;;12.97;78.07;102025.28;4977266;28;20148;-57
2023/06/03 00:47:07;;;;;;;4.88;3.25;;;;;;;12.94;78.30;102030.41;4977179;28;20041;-56
2023/06/03 00:49:34;;;;;;;4.28;3.00;;;;;;;12.93;78.49;102032.97;4975473;28;20038;-56
2023/06/03 00:51:59;;;;;;;3.90;2.95;;;;;;;12.90;78.14;102031.16;4974728;28;20058;-56
2023/06/03 00:54:26;;;;;;;3.85;3.15;;;;;;;12.83;77.98;102026.53;4976893;28;20462;-56
2023/06/03 00:56:51;;;;;;;4.63;3.00;;;;;;;12.78;78.24;102031.63;4975824;28;20043;-57
2023/06/03 00:59:17;;;;;;;4.20;2.88;;;;;;;12.74;78.16;102021.91;4976630;28;20307;-56
2023/06/03 01:01:43;;;;;;;4.97;3.20;;;;;;;12.74;78.29;102028.88;4976131;28;20033;-56
2023/06/03 01:04:25;;;;;;;4.40;2.88;;;;;;;12.69;78.67;102024.38;4976420;28;20103;-56
2023/06/03 01:07:06;;;;;;;3.95;2.90;;;;;;;12.68;78.32;102032.16;4976839;28;20038;-56
2023/06/03 01:10:03;;;;;;;4.60;2.90;;;;;;;12.67;78.23;102026.06;4977105;28;20231;-56
2023/06/03 01:13:01;;;;;;;3.92;3.03;;;;;;;12.62;77.88;102027.59;4976842;28;20114;-57
2023/06/03 01:15:29;;;;;;;4.87;3.03;;;;;;;12.57;76.72;102025.66;4952084;28;20105;-56
2023/06/03 01:17:59;;;;;;;4.63;3.00;;;;;;;12.54;78.36;102029.06;4977317;28;20304;-56
2023/06/03 01:20:28;;;;;;;5.45;3.05;;;;;;;12.53;78.54;102025.56;4979530;28;20077;-56
2023/06/03 01:23:16;;;;;;;3.88;2.90;;;;;;;12.52;78.70;102025.50;4979237;28;20593;-56
2023/06/03 01:25:41;;;;;;;5.05;2.88;;;;;;;12.50;78.73;102032.44;4980567;28;20057;-56
2023/06/03 01:28:07;;;;;;;4.25;2.92;;;;;;;12.47;78.83;102027.97;4979041;28;20401;-56
2023/06/03 01:30:33;;;;;;;5.00;3.17;;;;;;;12.45;79.00;102027.00;4979975;28;20591;-56
2023/06/03 01:32:59;;;;;;;4.03;3.00;;;;;;;12.45;78.54;102028.75;4978457;28;20030;-57
2023/06/03 01:35:25;;;;;;;4.78;3.00;;;;;;;12.42;78.79;102026.91;4979350;28;20401;-56
2023/06/03 01:37:51;;;;;;;4.43;3.10;;;;;;;12.32;78.77;102028.31;4981331;28;20471;-56
2023/06/03 01:40:17;;;;;;;4.30;3.00;;;;;;;12.30;78.81;102031.72;4980096;28;20478;-57
2023/06/03 01:42:42;;;;;;;4.15;2.97;;;;;;;12.27;79.03;102029.88;4980087;28;20046;-56
2023/06/03 01:45:08;;;;;;;3.80;2.92;;;;;;;12.20;79.44;102027.88;4979333;28;20046;-56
2023/06/03 01:47:34;;;;;;;4.05;3.10;;;;;;;12.17;79.33;102022.56;4980119;28;20496;-56
2023/06/03 01:49:59;;;;;;;4.78;3.10;;;;;;;12.14;79.37;102025.06;4978988;28;20037;-56
2023/06/03 01:52:26;;;;;;;4.50;3.00;;;;;;;12.15;79.19;102026.81;4979717;28;20567;-56
2023/06/03 01:54:51;;;;;;;4.78;3.08;;;;;;;12.13;79.21;102032.00;4979513;28;20105;-56
2023/06/03 01:57:17;;;;;;;3.50;2.85;;;;;;;12.12;79.43;102027.63;4961964;28;20050;-56
2023/06/03 01:59:42;;;;;;;3.85;3.00;;;;;;;12.07;79.48;102029.16;4980336;28;20030;-56
2023/06/03 02:02:07;;;;;;;5.15;3.28;;;;;;;12.06;79.76;102029.97;4978420;28;20695;-57
2023/06/03 02:04:33;;;;;;;5.28;3.08;;;;;;;12.05;79.80;102029.94;4976187;28;20584;-57
2023/06/03 02:07:00;;;;;;;3.42;2.85;;;;;;;12.00;79.47;102035.00;4979437;28;20030;-56
2023/06/03 02:09:29;;;;;;;6.10;3.00;;;;;;;11.97;79.07;102019.22;4978840;28;20037;-56
2023/06/03 02:11:55;;;;;;;;;;;;;;;11.99;77.95;102023.66;4980487;28;20031;-56
2023/06/03 02:14:20;;;;;;;4.60;2.92;;;;;;;11.94;78.95;102024.31;4977952;28;19949;-56
2023/06/03 02:16:46;;;;;;;4.60;3.10;;;;;;;11.91;79.99;102025.06;4979445;28;20256;-56
2023/06/03 02:19:16;;;;;;;4.55;2.67;;;;;;;11.84;80.15;102023.06;4979704;28;20398;-56
2023/06/03 02:21:42;;;;;;;4.93;3.05;;;;;;;11.80;80.75;102019.44;4974123;28;20023;-56
2023/06/03 02:24:08;;;;;;;4.78;3.00;;;;;;;11.80;81.48;102022.06;4977176;28;20037;-56
2023/06/03 02:26:34;;;;;;;4.28;2.78;;;;;;;11.79;81.33;102019.41;4979098;28;20389;-56
2023/06/03 02:28:59;;;;;;;4.00;3.03;;;;;;;11.76;80.61;102016.66;4976371;28;20483;-56
2023/06/03 02:31:25;;;;;;;3.70;2.85;;;;;;;11.74;80.62;102020.94;4960233;28;20026;-63
2023/06/03 02:33:50;;;;;;;4.68;3.03;;;;;;;11.72;81.60;102017.38;4978180;28;20054;-63
2023/06/03 02:36:18;;;;;;;3.75;2.80;;;;;;;11.66;81.09;102018.91;4976036;28;20486;-63
2023/06/03 02:38:43;;;;;;;4.13;3.08;;;;;;;11.63;81.67;102018.81;4978696;28;20124;-62
2023/06/03 02:41:09;;;;;;;3.50;2.75;;;;;;;11.64;81.76;102020.59;4979739;28;20652;-63
2023/06/03 02:43:34;;;;;;;3.53;2.70;;;;;;;11.58;82.10;102020.34;4979074;28;20046;-63
2023/06/03 02:46:00;;;;;;;5.57;3.28;;;;;;;11.55;82.14;102016.72;4977870;28;20440;-63
2023/06/03 02:48:25;;;;;;;4.93;3.10;;;;;;;11.54;80.93;102025.38;4978646;28;20037;-63
2023/06/03 02:50:50;;;;;;;4.97;3.00;;;;;;;11.58;81.37;102024.69;4976251;28;20037;-63
2023/06/03 02:53:17;;;;;;;3.55;2.92;;;;;;;11.56;81.09;102018.53;4978343;28;20026;-63
2023/06/03 02:55:42;;;;;;;3.85;2.80;;;;;;;11.57;81.62;102021.19;4979260;28;20039;-63
2023/06/03 02:58:08;;;;;;;4.50;2.97;;;;;;;11.56;80.93;102021.13;4978431;28;20039;-63
2023/06/03 03:00:34;;;;;;;3.88;3.10;;;;;;;11.55;81.92;102030.66;4978433;28;20494;-63
2023/06/03 03:03:00;;;;;;;4.00;2.85;;;;;;;11.55;81.88;102020.22;4978698;28;20037;-63
2023/06/03 03:05:25;;;;;;;3.88;2.75;;;;;;;11.56;81.50;102021.13;4978179;28;20624;-62
2023/06/03 03:07:51;;;;;;;3.60;2.50;;;;;;;11.51;80.54;102031.38;4978563;28;20027;-63
2023/06/03 03:10:16;;;;;;;3.75;2.88;;;;;;;11.45;81.21;102023.31;4959678;28;20181;-63
2023/06/03 03:12:41;;;;;;;4.22;2.80;;;;;;;11.42;82.12;102028.41;4975878;28;20049;-63
2023/06/03 03:15:07;;;;;;;4.13;2.75;;;;;;;11.42;81.65;102028.41;4978824;28;20034;-63
2023/06/03 03:17:33;;;;;;;3.50;2.80;;;;;;;11.40;81.81;102017.03;4958942;28;20033;-56
2023/06/03 03:19:59;;;;;;;4.13;2.90;;;;;;;11.36;82.25;102023.84;4977632;28;20651;-56
2023/06/03 03:22:25;;;;;;;3.92;3.10;;;;;;;11.37;81.89;102022.09;4977724;28;20029;-56
2023/06/03 03:24:51;;;;;;;3.97;2.70;;;;;;;11.37;81.73;102032.56;4976956;28;20498;-57
2023/06/03 03:27:16;;;;;;;5.00;3.15;;;;;;;11.38;81.45;102035.22;4978923;28;20023;-56
2023/06/03 03:29:45;;;;;;;3.70;2.78;;;;;;;11.36;81.81;102038.63;4979115;28;20040;-57
2023/06/03 03:32:11;;;;;;;4.00;3.20;;;;;;;11.37;81.84;102032.56;4978316;28;20042;-56
2023/06/03 03:34:38;;;;;;;3.83;2.75;;;;;;;11.36;81.67;102029.06;4977508;28;20038;-56
2023/06/03 03:37:04;;;;;;;4.45;2.90;;;;;;;11.35;81.90;102039.44;4977959;28;20054;-57
2023/06/03 03:39:30;;;;;;;4.45;3.00;;;;;;;11.34;81.74;102040.25;4976737;28;20054;-57
2023/06/03 03:41:55;;;;;;;3.95;3.20;;;;;;;11.31;81.73;102039.31;4977068;28;20647;-56
2023/06/03 03:44:21;;;;;;;4.57;3.00;;;;;;;11.29;82.09;102040.09;4977720;28;20026;-56
2023/06/03 03:46:52;;;;;;;3.78;2.78;;;;;;;11.27;82.21;102032.19;4978282;28;20083;-56
2023/06/03 03:49:26;;;;;;;4.38;2.97;;;;;;;11.24;82.07;102037.28;4976186;28;20026;-56
2023/06/03 03:51:52;;;;;;;4.20;2.92;;;;;;;11.26;82.13;102042.56;4974903;28;20057;-56
2023/06/03 03:54:22;;;;;;;4.32;2.67;;;;;;;11.23;82.02;102042.47;4972351;28;20030;-56
2023/06/03 03:56:47;;;;;;;4.05;2.95;;;;;;;11.24;82.00;102039.00;4972199;28;20049;-56
2023/06/03 03:59:16;;;;;;;3.85;3.00;;;;;;;11.22;82.29;102041.53;4970567;28;20026;-56
2023/06/03 04:01:43;;;;;;;;;;;;;;;11.26;80.60;102043.44;4971447;28;20106;-56
2023/06/03 04:04:10;;;;;;;4.10;2.75;;;;;;;11.24;81.84;102044.22;4970760;28;20379;-57
2023/06/03 04:06:38;;;;;;;4.38;2.63;;;;;;;11.20;82.73;102043.22;4971410;28;20115;-56
2023/06/03 04:09:08;;;;;;;3.92;2.90;;;;;;;11.19;82.75;102041.44;4978207;28;20403;-56
2023/06/03 04:11:38;;;;;;;3.65;2.80;;;;;;;11.19;83.04;102040.56;4977170;28;20030;-56
2023/06/03 04:14:04;;;;;;;;;;;;;;;11.22;80.78;102038.06;4980679;28;20018;-56
2023/06/03 04:17:02;;;;;;;4.25;2.80;;;;;;;11.15;82.88;102049.94;4979008;28;19914;-56
2023/06/03 04:19:37;;;;;;;4.45;2.95;;;;;;;11.12;82.80;102050.75;4977880;28;20034;-56
2023/06/03 04:22:05;;;;;;;3.90;3.00;;;;;;;11.07;84.01;102057.47;4976368;28;20030;-56
2023/06/03 04:24:33;;;;;;;3.90;3.10;;;;;;;11.06;84.05;102049.59;4971599;28;20030;-56
2023/06/03 04:26:59;;;;;;;3.77;2.70;;;;;;;11.09;83.54;102052.31;4971886;28;20034;-63
2023/06/03 04:29:25;;;;;;;4.32;2.60;;;;;;;11.10;83.64;102057.59;4977181;28;20089;-63
2023/06/03 04:31:50;;;;;;;4.07;2.70;;;;;;;11.11;81.74;102053.28;4976797;28;20088;-62
2023/06/03 04:34:16;;;;;;;3.35;2.67;;;;;;;11.12;83.64;102055.03;4976879;28;20030;-63
2023/06/03 04:36:41;;;;;;;4.63;2.63;;;;;;;11.14;83.71;102056.03;4974056;28;20038;-63
2023/06/03 04:39:08;;;;;;;3.78;2.70;;;;;;;11.11;80.93;102055.91;4976325;28;20636;-63
2023/06/03 04:41:37;;;;;;;3.60;2.67;;;;;;;11.11;82.99;102054.16;4956784;28;20441;-62
2023/06/03 04:44:03;;;;;;;3.33;2.63;;;;;;;11.13;83.63;102055.09;4976478;28;20258;-62
2023/06/03 04:46:31;;;;;;;3.58;2.53;;;;;;;11.16;83.63;102062.19;4957626;28;20113;-62
2023/06/03 04:49:01;;;;;;;3.78;2.78;;;;;;;11.20;82.68;102055.38;4974958;28;20038;-62
2023/06/03 04:51:29;;;;;;;;;;;;;;;11.23;80.96;102051.16;4972160;28;20037;-63
2023/06/03 04:53:56;;;;;;;3.10;2.40;;;;;;;11.21;81.72;102054.53;4978200;28;19957;-62
2023/06/03 04:56:24;;;;;;;3.60;2.53;;;;;;;11.21;83.23;102054.53;4962723;28;20022;-63
2023/06/03 04:58:54;;;;;;;3.47;2.40;;;;;;;11.23;81.74;102061.59;4981111;28;20055;-62
2023/06/03 05:01:23;;;;;;;3.60;2.45;;;;;;;11.26;82.78;102059.09;4980434;28;20026;-63
2023/06/03 05:03:49;;;;;;;3.60;2.30;;;;;;;11.26;81.54;102053.00;4981563;28;20092;-62
2023/06/03 05:06:15;;;;;;;3.70;2.65;;;;;;;11.28;82.76;102057.47;4979304;28;20486;-62
2023/06/03 05:08:40;;;;;;;3.95;2.85;;;;;;;11.29;81.57;102059.22;4977981;28;20046;-62
2023/06/03 05:11:07;;;;;;;3.95;2.50;;;;;;;11.32;82.59;102066.28;4978540;28;20058;-63
2023/06/03 05:13:34;;;;;;;3.03;2.35;;;;;;;11.29;80.23;102064.44;4978493;28;20110;-63
2023/06/03 05:16:00;;;;;;;4.18;2.30;;;;;;;11.38;82.12;102057.81;4979833;28;20085;-63
2023/06/03 05:18:25;;;;;;;3.10;2.10;;;;;;;11.42;81.42;102058.00;4980076;28;20034;-63
2023/06/03 05:20:50;;;;;;;3.50;2.30;;;;;;;11.48;81.41;102057.34;4979125;28;20444;-63
2023/06/03 05:23:16;;;;;;;3.55;2.25;;;;;;;11.52;81.21;102056.66;4980201;28;20030;-63
2023/06/03 05:25:41;;;;;;;3.05;2.00;;;;;;;11.54;80.83;102065.41;4981047;28;20037;-63
2023/06/03 05:28:06;;;;;;;2.85;2.10;;;;;;;11.55;79.75;102061.09;4980224;28;20044;-63
2023/06/03 05:30:32;;;;;;;3.40;2.55;;;;;;;11.59;81.09;102063.91;4981023;28;20089;-63
2023/06/03 05:32:57;;;;;;;3.10;2.10;;;;;;;11.61;79.89;102062.22;4980716;28;20405;-63
2023/06/03 05:35:23;;;;;;;2.95;2.20;;;;;;;11.67;79.73;102061.56;4979249;28;20030;-63
2023/06/03 05:37:48;;;;;;;3.78;2.67;;;;;;;11.77;79.08;102068.03;4981425;28;21007;-63
2023/06/03 05:40:13;;;;;;;3.30;2.42;;;;;;;11.79;79.13;102058.56;4979870;28;20575;-63
2023/06/03 05:42:39;;;;;;;4.05;2.60;;;;;;;11.86;79.71;102050.13;4980274;28;20069;-63
2023/06/03 05:45:05;;;;;;;3.17;2.10;;;;;;;11.93;78.49;102062.59;4979227;28;20053;-63
2023/06/03 05:47:30;;;;;;;4.15;2.30;;;;;;;11.98;79.03;102055.84;4977254;28;20030;-63
2023/06/03 05:49:55;;;;;;;3.92;2.63;;;;;;;12.06;77.97;102061.34;4980001;28;20121;-63
2023/06/03 05:52:21;;;;;;;3.10;2.30;;;;;;;12.16;78.46;102059.97;4975526;28;20035;-63
2023/06/03 05:54:46;;;;;;;5.18;2.45;;;;;;;12.27;76.18;102056.03;4979353;28;20022;-63
2023/06/03 05:57:11;;;;;;;4.82;2.47;;;;;;;12.34;75.86;102057.13;4978385;28;20478;-62
2023/06/03 05:59:36;;;;;;;3.78;2.35;;;;;;;12.43;77.88;102059.19;4980522;28;20085;-63
2023/06/03 06:02:02;;;;;;;2.67;1.90;;;;;;;12.51;77.31;102060.31;4978587;28;20529;-63
2023/06/03 06:04:27;;;;;;;3.55;2.17;;;;;;;12.61;76.24;102067.66;4979486;28;20629;-63
2023/06/03 06:06:53;;;;;;;2.80;2.00;;;;;;;12.69;77.00;102067.94;4979903;28;20112;-63
2023/06/03 06:09:18;;;;;;;2.80;1.98;;;;;;;12.78;76.19;102064.75;4978958;28;20038;-63
2023/06/03 06:11:43;;;;;;;3.05;2.05;;;;;;;12.92;75.19;102059.97;4977194;28;20034;-63
2023/06/03 06:14:10;;;;;;;3.13;1.98;;;;;;;13.02;75.55;102064.66;4977545;28;20117;-63
2023/06/03 06:16:36;;;;;;;3.58;1.85;;;;;;;13.14;73.70;102058.97;4978096;28;20047;-63
2023/06/03 06:19:01;;;;;;;3.65;2.10;;;;;;;13.24;74.67;102068.91;4979392;28;20046;-63
2023/06/03 06:21:26;;;;;;;3.97;1.92;;;;;;;13.35;74.04;102058.78;4975838;28;20037;-64
2023/06/03 06:23:52;;;;;;;2.97;2.00;;;;;;;13.45;73.84;102062.59;4978628;28;20114;-64
2023/06/03 06:26:17;;;;;;;2.90;1.73;;;;;;;13.53;70.30;102061.13;4980199;28;20544;-64
2023/06/03 06:28:43;;;;;;;2.85;1.98;;;;;;;13.66;72.34;102075.47;4979604;28;20118;-64
2023/06/03 06:31:10;;;;;;;2.78;1.80;;;;;;;13.71;70.17;102069.50;4978054;28;20808;-63
2023/06/03 06:33:36;;;;;;;3.33;1.83;;;;;;;13.80;71.51;102068.03;4976234;28;20118;-64
2023/06/03 06:36:28;;;;;;;3.85;1.88;;;;;;;13.91;71.67;102074.47;4979432;28;20066;-63
2023/06/03 06:38:55;;;;;;;2.50;1.70;;;;;;;14.02;67.86;102072.16;4978751;28;20030;-64
2023/06/03 06:41:21;;;;;;;3.25;1.70;;;;;;;14.12;67.89;102071.59;4977745;28;20030;-64
2023/06/03 06:43:46;;;;;;;3.22;1.83;;;;;;;14.25;69.06;102073.72;4975799;28;20030;-63
2023/06/03 06:46:12;;;;;;;2.92;1.70;;;;;;;14.38;70.24;102072.34;4971544;28;20043;-64
2023/06/03 06:48:40;;;;;;;2.53;1.50;;;;;;;14.44;66.16;102076.88;4979549;28;20503;-64
2023/06/03 06:51:06;;;;;;;2.47;1.50;;;;;;;14.53;66.67;102068.34;4977399;28;20394;-64
2023/06/03 06:53:35;;;;;;;3.35;1.92;;;;;;;14.64;67.73;102071.28;4977507;28;20037;-64
2023/06/03 06:56:18;;;;;;;3.03;1.60;;;;;;;14.76;69.44;102079.50;4976552;28;20026;-64
2023/06/03 06:58:45;;;;;;;3.85;1.70;;;;;;;14.94;68.94;102081.69;4978207;28;20038;-64
2023/06/03 07:01:10;;;;;;;2.58;1.65;;;;;;;14.97;65.13;102075.66;4980041;28;20029;-64
2023/06/03 07:03:36;;;;;;;3.67;1.80;;;;;;;15.03;64.25;102076.66;4979365;28;20034;-64
2023/06/03 07:06:01;;;;;;;2.72;1.50;;;;;;;15.19;66.24;102075.31;4979205;28;20506;-64
2023/06/03 07:08:27;;;;;;;3.22;1.60;;;;;;;15.25;58.71;102066.69;4973434;28;20486;-57
2023/06/03 07:10:59;;;;;;;3.50;1.50;;;;;;;15.41;61.47;102071.47;4978682;28;20042;-58
2023/06/03 07:13:24;;;;;;;2.13;1.27;;;;;;;15.51;62.54;102066.41;4979066;28;20037;-58
2023/06/03 07:15:50;;;;;;;3.72;1.70;;;;;;;15.61;56.95;102071.03;4974554;28;20022;-58
2023/06/03 07:18:16;;;;;;;2.55;1.20;;;;;;;15.69;60.68;102064.22;4960851;28;20038;-58
2023/06/03 07:20:43;;;;;;;2.67;1.60;;;;;;;15.77;61.50;102067.91;4967898;28;20034;-58
2023/06/03 07:23:21;;;;;;;3.50;1.50;;;;;;;16.01;61.21;102066.69;4979008;28;20038;-58
2023/06/03 07:25:51;;;;;;;3.28;1.35;;;;;;;16.12;56.77;102062.53;4977647;28;20022;-58
2023/06/03 07:28:19;;;;;;;2.42;1.27;;;;;;;16.22;55.51;102066.25;4977860;28;20117;-58
2023/06/03 07:30:52;;;;;;;2.05;1.20;;;;;;;16.33;58.47;102069.94;4976364;28;20045;-58
2023/06/03 07:38:38;;;;;;;2.53;1.45;;;;;;;16.65;52.99;102071.41;5046648;23;20043;-96
2023/06/03 07:41:08;;;;;;;2.78;1.10;;;;;;;16.73;53.72;102061.94;4970193;28;20038;-96
2023/06/03 07:43:50;;;;;;;3.13;1.30;;;;;;;16.84;53.96;102062.09;4973090;28;21310;-96
2023/06/03 07:46:24;;;;;;;2.38;1.00;;;;;;;17.03;56.93;102058.97;4972660;28;20035;-96
2023/06/03 07:51:24;;;;;;;2.30;1.08;;;;;;;17.26;49.82;102065.44;4981868;28;20530;-58
2023/06/03 07:53:55;;;;;;;1.58;0.90;;;;;;;17.35;48.09;102069.13;4984150;28;20096;-58
2023/06/03 07:56:21;;;;;;;1.75;0.90;;;;;;;17.36;49.19;102072.63;4968508;28;20033;-58
2023/06/03 07:58:46;;;;;;;1.80;1.08;;;;;;;17.47;49.03;102076.31;4967472;28;20497;-58
2023/06/03 08:01:15;;;;;;;1.48;0.90;;;;;;;17.59;47.04;102074.72;4985518;28;20018;-58
2023/06/03 08:03:40;;;;;;;1.98;0.98;;;;;;;17.70;48.62;102073.13;4985460;28;20030;-58
2023/06/03 08:06:06;;;;;;;2.05;0.90;;;;;;;17.81;46.92;102071.50;4981581;28;20026;-58
2023/06/03 08:08:33;;;;;;;1.35;0.70;;;;;;;18.00;47.09;102071.78;4978514;28;20041;-58
2023/06/03 08:11:00;;;;;;;2.58;0.80;;;;;;;18.15;47.26;102073.75;4983970;28;20117;-58
2023/06/03 08:13:25;;;;;;;0.98;0.70;;;;;;;18.23;45.28;102067.69;4984329;28;20026;-58
2023/06/03 08:15:51;;;;;;;2.13;0.80;;;;;;;18.34;48.76;102072.19;4984298;28;20030;-58
2023/06/03 08:18:51;;;;;;;1.48;0.80;;;;;;;18.49;48.22;102068.81;4985410;28;20112;-59
2023/06/03 08:21:17;;;;;;;1.50;0.82;;;;;;;18.66;47.01;102079.56;4984173;28;20018;-58
2023/06/03 08:23:43;;;;;;;2.08;0.98;;;;;;;18.87;48.06;102066.59;4981304;28;20413;-59
2023/06/03 08:26:10;;;;;;;3.40;0.90;;;;;;;18.97;41.25;102069.31;4983380;28;20091;-58
2023/06/03 08:28:38;;;;;;;3.85;1.00;;;;;;;18.99;42.01;102062.25;4983725;28;20109;-58
2023/06/03 08:31:04;;;;;;;2.45;1.00;;;;;;;19.07;44.20;102060.59;4984503;28;20034;-58
2023/06/03 08:33:29;;;;;;;1.52;0.88;;;;;;;19.11;39.08;102063.25;4979330;28;20087;-58
2023/06/03 08:35:55;;;;;;;1.95;0.75;;;;;;;19.12;39.94;102074.72;4982679;28;20409;-58
2023/06/03 08:38:20;;;;;;;4.20;1.10;;;;;;;19.13;37.32;102068.53;4985289;28;20063;-58
2023/06/03 08:40:50;;;;;;;2.78;0.88;;;;;;;19.10;37.81;102071.16;4983960;28;20022;-58
2023/06/03 08:43:16;;;;;;;1.13;0.65;;;;;;;19.08;37.93;102057.06;4982233;28;20038;-58
2023/06/03 08:46:00;;;;;;;2.15;0.70;;;;;;;19.12;38.57;102058.88;4981685;28;20034;-58
2023/06/03 08:48:49;;;;;;;2.35;0.68;;;;;;;19.21;40.90;102064.22;4983808;28;20555;-59
2023/06/03 08:51:16;;;;;;;2.30;0.80;;;;;;;19.42;40.88;102055.56;4968112;28;20045;-58
2023/06/03 08:53:49;;;;;;;3.20;0.93;;;;;;;19.67;41.86;102058.34;4981089;28;20068;-58
2023/06/03 08:56:25;;;;;;;2.13;0.77;;;;;;;19.72;40.70;102056.59;4982547;28;20041;-58
2023/06/03 08:59:04;;;;;;;2.60;0.82;;;;;;;19.89;40.87;102059.34;4982382;28;20030;-58
2023/06/03 09:01:35;;;;;;;1.92;0.98;;;;;;;20.03;42.51;102058.53;4983156;28;20474;-58
2023/06/03 09:04:03;;;;;;;2.95;1.10;;;;;;;20.06;40.33;102054.13;4984310;28;20034;-58
2023/06/03 09:06:32;;;;;;;1.90;0.80;;;;;;;20.18;38.07;102061.22;4985094;28;20030;-58
2023/06/03 09:08:57;;;;;;;3.28;0.90;;;;;;;20.32;38.48;102061.28;4985608;28;20387;-58
2023/06/03 09:11:25;;;;;;;1.15;0.68;;;;;;;20.44;39.15;102063.94;4984338;28;20505;-59
2023/06/03 09:13:51;;;;;;;2.25;0.80;;;;;;;20.33;36.36;102053.34;4984768;28;20037;-59
2023/06/03 09:16:18;;;;;;;6.13;5.03;;;;;;;20.66;41.37;102054.28;4985015;28;20105;-59
2023/06/03 09:18:44;;;;;;;1.65;1.13;;;;;;;20.83;38.06;102061.38;4982025;28;20048;-59
2023/06/03 09:21:10;;;;;;;2.00;0.95;;;;;;;20.87;36.08;102057.84;4982620;28;20018;-59
2023/06/03 09:23:39;;;;;;;2.03;0.98;;;;;;;20.97;34.75;102066.66;4983329;28;20097;-59
2023/06/03 09:26:05;;;;;;;8.55;7.85;;;;;;;21.29;37.49;102055.16;4984541;28;20108;-59
2023/06/03 09:28:33;;;;;;;4.15;2.67;;;;;;;21.34;36.52;102051.63;4982826;28;20080;-58
2023/06/03 09:30:59;;;;;;;2.58;0.90;;;;;;;21.27;35.76;102057.81;4985813;28;20041;-58
2023/06/03 09:33:25;;;;;;;1.52;0.70;;;;;;;21.34;35.03;102053.41;4983043;28;20030;-59
2023/06/03 09:36:13;;;;;;;2.63;1.00;;;;;;;21.24;37.20;102051.66;4978535;28;20045;-58
2023/06/03 09:38:52;;;;;;;4.35;2.75;;;;;;;21.37;37.96;102056.91;4978254;28;20511;-58
2023/06/03 09:41:20;;;;;;;4.93;3.47;;;;;;;21.71;36.07;102045.38;4981244;28;20038;-58
2023/06/03 09:43:54;;;;;;;5.30;2.78;;;;;;;21.78;37.99;102051.53;4982470;28;20113;-58
2023/06/03 09:46:20;;;;;;;2.40;1.05;;;;;;;21.77;36.17;102052.41;4981059;28;20046;-58
2023/06/03 09:48:45;;;;;;;6.03;5.20;;;;;;;21.86;34.15;102052.38;4982755;28;20084;-58
2023/06/03 09:51:11;;;;;;;2.22;1.08;;;;;;;22.08;32.20;102057.59;4971158;28;20063;-58
2023/06/03 09:53:37;;;;;;;1.73;0.70;;;;;;;22.10;30.71;102053.16;4972842;28;20798;-58
2023/06/03 09:56:21;;;;;;;2.95;0.70;;;;;;;22.14;33.45;102052.25;4977604;28;20105;-58
2023/06/03 09:58:46;;;;;;;1.65;0.70;;;;;;;22.29;33.26;102051.28;4975860;28;20026;-58
2023/06/03 10:01:12;;;;;;;1.95;1.02;;;;;;;22.53;34.82;102051.16;4974838;28;20050;-58
2023/06/03 10:03:37;;;;;;;1.77;0.70;;;;;;;22.67;32.80;102055.50;4970390;28;20034;-58
2023/06/03 10:06:29;;;;;;;1.90;0.80;;;;;;;22.86;34.86;102051.78;4977018;28;20034;-58
2023/06/03 10:08:55;;;;;;;1.40;0.75;;;;;;;22.87;33.54;102055.31;4966807;28;20035;-58
2023/06/03 10:11:22;;;;;;;1.20;0.60;;;;;;;22.90;33.19;102058.84;4974302;28;20027;-58
2023/06/03 10:13:47;;;;;;;1.83;0.60;;;;;;;22.99;31.19;102047.25;4970363;28;20045;-59
2023/06/03 10:16:13;;;;;;;1.05;0.70;;;;;;;23.02;30.54;102044.56;4973804;28;20022;-59
2023/06/03 10:18:42;;;;;;;1.52;0.80;;;;;;;23.05;32.62;102047.19;4975480;28;20402;-58
2023/06/03 10:21:07;;;;;;;;;;;;;;;22.96;29.27;102052.59;4971939;28;20076;-58
2023/06/03 10:23:36;;;;;;;1.20;0.63;;;;;;;22.33;27.53;102056.63;4955293;28;19917;-59
2023/06/03 10:26:02;;;;;;;1.50;0.70;;;;;;;22.43;31.32;102054.75;4970334;28;20408;-59
2023/06/03 10:28:29;;;;;;;1.77;0.60;;;;;;;22.69;30.37;102049.25;4971644;28;20033;-59
2023/06/03 10:30:56;;;;;;;1.40;0.70;;;;;;;22.89;29.22;102048.22;4973602;28;20100;-58
2023/06/03 10:33:22;;;;;;;1.40;0.60;;;;;;;22.96;29.13;102054.38;4973899;28;20491;-59
2023/06/03 10:40:51;;;;;;;2.08;0.70;;;;;;;23.07;26.79;102037.44;5021808;23;20055;-60
2023/06/03 10:43:18;;;;;;;3.25;0.80;;;;;;;23.30;31.83;102038.13;4945715;29;20525;-60
2023/06/03 10:45:43;;;;;;;1.85;0.55;;;;;;;23.41;29.47;102041.56;4944738;29;20035;-60
2023/06/03 10:48:12;;;;;;;1.92;0.60;;;;;;;23.65;31.42;102021.78;4936336;29;20030;-60
2023/06/03 10:50:43;;;;;;;2.58;0.80;;;;;;;23.79;28.97;102041.09;4942268;28;20063;-60
2023/06/03 10:53:46;;;;;;;0.90;0.40;;;;;;;23.69;27.88;102042.13;4945408;28;20030;-59
2023/06/03 10:56:31;;;;;;;1.05;0.52;;;;;;;23.89;31.92;102043.69;4944538;29;20118;-60
2023/06/03 10:59:02;;;;;;;3.22;0.60;;;;;;;24.05;32.43;102050.56;4943956;29;20039;-60
2023/06/03 11:01:54;;;;;;;2.45;0.60;;;;;;;24.19;28.64;102038.84;4945990;29;20030;-60
2023/06/03 11:04:20;;;;;;;2.42;0.52;;;;;;;24.57;30.62;102042.72;4935935;29;20079;-60
2023/06/03 11:06:45;;;;;;;1.83;0.60;;;;;;;24.46;28.75;102034.88;4945473;29;20121;-60
2023/06/03 11:09:16;;;;;;;1.17;0.60;;;;;;;24.75;28.27;102037.13;4942891;29;20093;-60
2023/06/03 11:11:41;;;;;;;1.45;0.45;;;;;;;24.44;28.52;102032.25;4943426;29;20097;-60
2023/06/03 11:14:25;;;;;;;1.73;0.60;;;;;;;23.92;23.05;102033.88;4945239;29;20499;-59
2023/06/03 11:16:56;;;;;;;1.05;0.50;;;;;;;23.90;26.40;102021.50;4943570;29;20031;-59
2023/06/03 11:19:33;;;;;;;1.83;0.60;;;;;;;24.03;28.75;102036.41;4944373;29;20046;-59
2023/06/03 11:22:08;;;;;;;1.23;0.50;;;;;;;24.50;30.48;102036.59;4942846;29;20031;-59
2023/06/03 11:24:42;;;;;;;1.77;0.60;;;;;;;24.42;28.14;102044.72;4944210;29;21448;-60
2023/06/03 11:27:11;;;;;;;1.67;0.60;;;;;;;24.63;29.45;102045.31;4943773;29;20027;-60
2023/06/03 11:29:51;;;;;;;1.27;0.50;;;;;;;24.93;28.84;102038.59;4945127;28;20115;-59
2023/06/03 11:32:18;;;;;;;1.95;0.50;;;;;;;25.18;28.98;102041.69;4943868;29;20037;-60
2023/06/03 11:34:45;;;;;;;1.15;0.60;;;;;;;25.07;28.38;102033.03;4943751;29;20038;-60
2023/06/03 11:37:11;;;;;;;1.50;0.70;;;;;;;24.78;23.38;102044.19;4945636;29;20062;-59
2023/06/03 11:40:00;;;;;;;1.45;0.60;;;;;;;24.34;24.53;102040.41;4936617;29;20048;-60
2023/06/03 11:42:26;;;;;;;1.05;0.80;;;;;;;24.03;23.90;102040.81;4917116;29;20024;-60
2023/06/03 11:44:52;;;;;;;1.25;0.80;;;;;;;23.96;27.16;102034.72;4899219;29;20385;-59